Latest Weather Observations for Westmere

IDV60801

Issued at 9:31 am EST Tuesday 1 September 2015 (issued every 30 minutes, with the page automatically refreshed every 10 minutes)

About weather observations | Map of weather stations | Latest weather observations for VIC | Other Formats
Station Details ID: 089112 Name: WESTMERE Lat: -37.71 Lon: 142.94 Height: 226.0 m
Data from the previous 72 hours. | See also: Recent months at Westmere
Date/Time
EST
Temp
°C
App
Temp
°C
Dew
Point
Rel
Hum
%
Delta-T
°C
Wind Press
QNH
hPa
Press
MSL
hPa
Rain
since 9 am
mm
Dir
 
Spd
km/h
Gust
km/h
Spd
kts
Gust
kts
01/09:30am 7.8 5.5 7.5 98 0.1 NNE 9 15 5 8 1016.6 1017.0 0.0
01/09:00am 5.4 3.0 5.4 100 0.0 NNE 7 9 4 5 1016.7 1017.1 0.0
01/08:30am 2.8 0.5 2.8 100 0.0 NNE 4 7 2 4 1016.6 1017.0 0.0
01/08:00am 0.3 -2.4 0.3 100 0.0 NNE 4 6 2 3 1016.5 1016.8 0.0
01/07:30am -1.5 -5.0 -1.5 100 0.0 NNE 7 9 4 5 1016.2 1016.5 0.0
01/07:00am -1.9 -5.3 -1.9 100 0.0 NE 6 6 3 3 1015.8 1016.1 0.0
01/06:30am -2.2 -5.2 -2.2 100 0.0 NE 4 6 2 3 1015.9 1016.2 0.0
01/06:00am -2.1 -5.5 -2.1 100 0.0 NNE 6 7 3 4 1016.1 1016.4 0.0
01/05:30am -2.2 -5.6 -2.2 100 0.0 N 6 7 3 4 1016.1 1016.4 0.0
01/05:00am -1.8 -5.2 -1.8 100 0.0 NNE 6 6 3 3 1016.0 1016.3 0.0
01/04:30am -1.8 -4.8 -1.8 100 0.0 NNE 4 6 2 3 1016.0 1016.3 0.0
01/04:00am -2.0 -5.6 -2.0 100 0.0 NE 7 7 4 4 1016.2 1016.5 0.0
01/03:30am -1.6 -4.2 -1.6 100 0.0 NNE 2 2 1 1 1016.6 1017.0 0.0
01/03:00am -1.3 -4.2 -1.3 100 0.0 NNE 4 6 2 3 1016.8 1017.2 0.0
01/02:30am -1.3 -4.6 -1.3 100 0.0 NNE 6 6 3 3 1017.4 1017.7 0.0
01/02:00am -0.8 -3.7 -0.8 100 0.0 N 4 6 2 3 1017.9 1018.2 0.0
01/01:30am -0.1 -2.5 -0.1 100 0.0 N 2 4 1 2 1018.0 1018.3 0.0
01/01:00am -0.1 -3.3 -0.2 99 0.0 N 6 6 3 3 1018.2 1018.5 0.0
01/12:30am 0.5 -1.4 0.4 99 0.0 CALM 0 0 0 0 1018.5 1018.8 0.0
01/12:00am 4.6 3.3 3.9 95 0.3 CALM 0 0 0 0 1018.5 1018.8 0.0
 
Date/Time
EST
Temp
°C
App
Temp
°C
Dew
Point
Rel
Hum
%
Delta-T
°C
Wind Press
QNH
hPa
Press
MSL
hPa
Rain
since 9 am
mm
Dir
 
Spd
km/h
Gust
km/h
Spd
kts
Gust
kts
31/11:30pm 4.8 2.6 3.5 91 0.5 ESE 4 6 2 3 1018.6 1018.9 0.0
31/11:00pm 6.6 5.1 5.2 91 0.6 NE 2 6 1 3 1018.9 1019.2 0.0
31/10:30pm 7.3 5.2 5.6 89 0.8 NE 6 6 3 3 1019.0 1019.3 0.0
31/10:00pm 7.6 6.2 5.7 88 0.9 N 2 4 1 2 1019.3 1019.6 0.0
31/09:30pm 8.0 6.8 4.6 79 1.5 CALM 0 4 0 2 1019.3 1019.6 0.0
31/09:00pm 8.1 6.9 4.7 79 1.5 CALM 0 0 0 0 1019.3 1019.6 0.0
31/08:30pm 7.1 5.0 6.0 93 0.5 SSE 6 11 3 6 1019.3 1019.6 0.0
31/08:00pm 7.8 6.2 7.8 100 0.0 SE 6 7 3 4 1019.0 1019.3 0.0
31/07:30pm 8.0 6.8 8.0 100 0.0 S 4 4 2 2 1018.9 1019.2 0.0
31/07:00pm 8.1 6.2 6.7 91 0.7 SSE 6 9 3 5 1018.7 1019.0 0.0
31/06:30pm 8.1 5.8 5.0 81 1.4 SSE 6 9 3 5 1018.7 1019.0 0.0
31/06:00pm 8.6 6.8 5.2 79 1.5 SE 4 6 2 3 1018.8 1019.1 0.0
31/05:30pm 8.8 6.5 4.8 76 1.8 S 6 9 3 5 1018.9 1019.2 0.0
31/05:00pm 9.0 5.7 4.8 75 1.9 SSW 11 15 6 8 1019.0 1019.3 0.0
31/04:30pm 9.1 6.5 4.3 72 2.1 SSW 7 15 4 8 1019.1 1019.4 0.0
31/04:00pm 9.4 6.6 5.0 74 2.0 SW 9 15 5 8 1019.1 1019.4 0.0
31/03:30pm 9.2 6.8 4.2 71 2.2 SSE 6 15 3 8 1019.3 1019.6 0.0
31/03:00pm 9.2 6.8 5.2 76 1.8 S 7 9 4 5 1019.4 1019.7 0.0
31/02:30pm 9.0 6.0 4.2 72 2.1 S 9 17 5 9 1019.5 1019.8 0.0
31/02:00pm 9.4 6.6 5.0 74 2.0 SSW 9 15 5 8 1019.8 1020.1 0.0
31/01:30pm 9.6 7.1 5.0 73 2.1 SW 7 13 4 7 1020.2 1020.5 0.0
31/01:00pm 9.1 6.5 4.1 71 2.2 SSW 7 13 4 7 1020.4 1020.8 0.0
31/12:30pm 9.2 6.3 4.8 74 2.0 SSW 9 15 5 8 1020.7 1021.1 0.0
31/12:00pm 9.1 5.6 5.3 77 1.7 SSW 13 17 7 9 1021.0 1021.4 0.0
31/11:30am 9.2 6.1 5.6 78 1.7 SSW 11 17 6 9 1021.3 1021.7 0.0
31/11:00am 8.3 5.1 5.1 80 1.4 SW 11 19 6 10 1021.4 1021.8 0.0
31/10:30am 8.4 5.3 5.5 82 1.3 SSE 11 17 6 9 1021.5 1021.9 0.0
31/10:00am 7.8 5.4 5.1 83 1.2 S 7 11 4 6 1021.8 1022.1 0.0
31/09:30am 7.5 4.7 5.3 86 1.0 SSE 9 15 5 8 1021.8 1022.1 0.0
31/09:00am 6.8 3.6 5.1 89 0.8 S 11 17 6 9 1021.9 1022.2 0.0
31/08:30am 6.3 4.3 6.3 100 0.0 SSW 6 9 3 5 1021.9 1022.2 0.0
31/08:00am 6.1 4.1 6.1 100 0.0 SW 6 7 3 4 1021.8 1022.1 0.0
31/07:30am 5.5 3.7 5.5 100 0.0 SSW 4 9 2 5 1021.4 1021.8 0.0
31/07:00am 4.5 2.1 4.5 100 0.0 SSW 6 7 3 4 1021.4 1021.8 0.0
31/06:30am 5.6 4.6 5.6 100 0.0 CALM 0 4 0 2 1021.2 1021.6 0.0
31/06:00am 5.6 4.6 5.6 100 0.0 CALM 0 0 0 0 1021.2 1021.6 0.0
31/05:30am 5.4 4.4 5.4 100 0.0 CALM 0 0 0 0 1021.1 1021.5 0.0
31/05:00am 5.7 3.4 5.7 100 0.0 SSE 7 9 4 5 1021.1 1021.5 0.0
31/04:30am 6.2 4.0 5.5 95 0.3 SSW 6 11 3 6 1021.2 1021.6 0.0
31/04:00am 6.2 4.0 5.2 93 0.4 SSW 6 9 3 5 1021.3 1021.7 0.0
31/03:30am 6.2 4.3 5.0 92 0.5 SSW 4 6 2 3 1021.4 1021.8 0.0
31/03:00am 6.2 3.8 4.5 89 0.7 SSW 6 9 3 5 1021.8 1022.1 0.0
31/02:30am 6.4 3.9 4.7 89 0.7 SSW 7 11 4 6 1022.3 1022.6 0.0
31/02:00am 6.3 3.8 4.5 88 0.8 SSW 7 11 4 6 1022.6 1022.9 0.0
31/01:30am 6.4 3.9 4.7 89 0.7 S 7 13 4 7 1022.8 1023.1 0.0
31/01:00am 6.4 3.5 4.6 88 0.8 S 9 13 5 7 1023.0 1023.3 0.0
31/12:30am 6.6 3.4 5.1 90 0.7 S 11 17 6 9 1023.2 1023.5 0.0
31/12:00am 6.7 4.1 6.1 96 0.3 SSE 9 13 5 7 1023.3 1023.6 0.0
 
Date/Time
EST
Temp
°C
App
Temp
°C
Dew
Point
Rel
Hum
%
Delta-T
°C
Wind Press
QNH
hPa
Press
MSL
hPa
Rain
since 9 am
mm
Dir
 
Spd
km/h
Gust
km/h
Spd
kts
Gust
kts
30/11:30pm 6.6 3.4 5.2 91 0.6 SSE 11 17 6 9 1023.5 1023.8 0.0
30/11:00pm 6.9 4.2 5.8 93 0.5 S 9 13 5 7 1023.6 1023.9 0.0
30/10:30pm 7.0 3.4 5.2 88 0.8 SSE 13 19 7 10 1023.9 1024.2 0.0
30/10:00pm 6.9 4.6 5.8 93 0.5 SSW 7 9 4 5 1024.2 1024.6 0.0
30/09:30pm 7.0 4.5 6.7 98 0.1 S 9 11 5 6 1024.2 1024.6 0.0
30/09:00pm 7.3 4.3 6.1 92 0.5 S 11 17 6 9 1024.3 1024.7 0.0
30/08:30pm 7.4 4.4 5.9 90 0.7 SSW 11 17 6 9 1024.2 1024.6 0.0
30/08:00pm 7.7 4.7 6.0 89 0.8 S 11 15 6 8 1024.2 1024.6 0.0
30/07:30pm 7.7 4.6 5.5 86 1.0 SSW 11 17 6 9 1024.1 1024.5 0.0
30/07:00pm 7.8 4.7 5.4 85 1.1 SSW 11 17 6 9 1024.0 1024.4 0.0
30/06:30pm 8.0 5.3 5.5 84 1.1 SSW 9 13 5 7 1023.9 1024.2 0.0
30/06:00pm 8.3 4.5 5.6 83 1.2 SSW 15 20 8 11 1023.8 1024.1 0.0
30/05:30pm 8.6 5.0 6.6 87 0.9 SSW 15 20 8 11 1023.6 1023.9 0.0
30/05:00pm 8.9 5.4 7.4 90 0.7 SSW 15 22 8 12 1023.6 1023.9 0.0
30/04:30pm 9.4 6.5 8.0 91 0.7 SSW 13 19 7 10 1023.6 1023.9 0.0
30/04:00pm 9.2 5.8 7.6 90 0.8 SSW 15 20 8 11 1023.7 1024.0 0.0
30/03:30pm 9.5 5.6 7.3 86 1.1 SSW 17 22 9 12 1023.9 1024.2 0.0
30/03:00pm 9.8 6.5 6.2 78 1.7 SSW 13 17 7 9 1023.9 1024.2 0.0
30/02:30pm 9.7 6.2 7.1 84 1.2 SSW 15 19 8 10 1024.0 1024.4 0.0
30/02:00pm 9.5 7.3 9.4 99 0.0 S 11 17 6 9 1024.2 1024.6 0.0
30/01:30pm 9.2 5.3 8.6 96 0.3 SSW 19 24 10 13 1024.3 1024.7 0.0
30/01:00pm 9.2 6.2 9.1 99 0.0 S 15 20 8 11 1024.6 1025.0 0.0
30/12:30pm 8.7 4.8 8.7 100 0.0 SSW 19 26 10 14 1025.0 1025.4 0.0
30/12:00pm 8.9 6.2 8.8 99 0.0 SSW 13 19 7 10 1025.4 1025.8 0.0
30/11:30am 8.6 5.1 8.6 100 0.0 SSW 17 22 9 12 1025.9 1026.3 0.0
30/11:00am 9.4 6.4 9.4 100 0.0 S 15 24 8 13 1026.2 1026.6 0.0
30/10:30am 8.0 3.9 8.0 100 0.0 S 19 22 10 12 1026.4 1026.7 0.0
30/10:00am 8.9 5.8 8.9 100 0.0 S 15 20 8 11 1026.2 1026.6 0.0
30/09:30am 7.8 3.7 7.8 100 0.0 SSW 19 26 10 14 1026.5 1026.8 0.0
30/09:00am 7.8 5.2 7.8 100 0.0 S 11 17 6 9 1026.5 1026.8 0.8
30/08:30am 6.9 3.7 6.9 100 0.0 SSW 13 17 7 9 1026.5 1026.8 0.8
30/08:00am 6.8 4.0 6.8 100 0.0 SSW 11 17 6 9 1026.5 1026.8 0.8
30/07:30am 6.3 4.1 6.3 100 0.0 SSW 7 11 4 6 1026.1 1026.5 0.8
30/07:00am 6.5 4.0 6.5 100 0.0 SSW 9 13 5 7 1025.9 1026.3 0.8
30/06:30am 6.3 3.7 6.3 100 0.0 SSW 9 13 5 7 1025.5 1025.9 0.8
30/06:00am 6.4 3.9 6.4 100 0.0 SSW 9 13 5 7 1025.4 1025.8 0.8
30/05:30am 6.5 4.4 6.5 100 0.0 SSW 7 9 4 5 1025.3 1025.7 0.6
30/05:00am 6.6 4.1 6.6 100 0.0 SSW 9 13 5 7 1025.2 1025.6 0.6
30/04:30am 6.5 4.4 6.5 100 0.0 SSW 7 9 4 5 1025.2 1025.6 0.4
30/04:00am 6.5 3.6 6.5 100 0.0 SSW 11 15 6 8 1025.4 1025.8 0.4
30/03:30am 6.3 4.1 6.3 100 0.0 SW 7 9 4 5 1025.8 1026.2 0.4
30/03:00am 6.4 3.9 6.4 100 0.0 SSW 9 13 5 7 1025.9 1026.3 0.2
30/02:30am 6.7 4.2 6.7 100 0.0 SSW 9 11 5 6 1026.1 1026.5 0.2
30/02:00am 6.8 4.7 6.8 100 0.0 SSW 7 13 4 7 1026.5 1026.8 0.2
30/01:30am 6.9 4.5 6.9 100 0.0 SSW 9 15 5 8 1026.7 1027.0 0.2
30/01:00am 6.9 4.9 6.9 100 0.0 SSW 7 9 4 5 1026.7 1027.0 0.2
30/12:30am 6.8 4.0 6.8 100 0.0 S 11 15 6 8 1026.7 1027.0 0.2
30/12:00am 6.9 3.7 6.9 100 0.0 S 13 22 7 12 1026.8 1027.1 0.2
 
Date/Time
EST
Temp
°C
App
Temp
°C
Dew
Point
Rel
Hum
%
Delta-T
°C
Wind Press
QNH
hPa
Press
MSL
hPa
Rain
since 9 am
mm
Dir
 
Spd
km/h
Gust
km/h
Spd
kts
Gust
kts
29/11:30pm 7.0 4.2 7.0 100 0.0 SSW 11 13 6 7 1026.9 1027.2 0.2
29/11:00pm 6.9 3.7 6.9 100 0.0 S 13 17 7 9 1027.2 1027.5 0.2
29/10:30pm 7.0 3.5 7.0 100 0.0 SSW 15 20 8 11 1027.4 1027.7 0.2
29/10:00pm 7.0 3.5 7.0 100 0.0 SSW 15 22 8 12 1027.5 1027.8 0.2
29/09:30pm 7.0 3.5 7.0 100 0.0 SSW 15 19 8 10 1027.6 1027.9 0.2
29/09:00pm 6.8 3.2 6.8 100 0.0 SSW 15 20 8 11 1027.5 1027.8 0.2
29/08:30pm 6.5 3.2 6.5 100 0.0 SSW 13 19 7 10 1027.4 1027.7 0.2
29/08:00pm 6.2 2.1 6.2 100 0.0 SSW 17 22 9 12 1027.4 1027.7 0.2
29/07:30pm 6.0 2.6 6.0 100 0.0 SSW 13 15 7 8 1027.4 1027.7 0.2
29/07:00pm 6.4 3.1 6.4 100 0.0 SSW 13 17 7 9 1027.4 1027.7 0.2
29/06:30pm 7.1 3.6 7.1 100 0.0 SSW 15 20 8 11 1027.2 1027.5 0.2
29/06:00pm 7.7 3.9 7.7 100 0.0 SSW 17 22 9 12 1027.1 1027.4 0.2
29/05:30pm 7.9 4.6 7.9 100 0.0 SSW 15 19 8 10 1027.0 1027.3 0.2
29/05:00pm 7.8 4.4 7.8 100 0.0 SW 15 20 8 11 1026.7 1027.0 0.2
29/04:30pm 8.5 5.7 8.5 100 0.0 SW 13 19 7 10 1026.7 1027.0 0.0
29/04:00pm 7.8 4.1 7.8 100 0.0 SSW 17 28 9 15 1026.8 1027.1 0.0
29/03:30pm 9.3 5.1 8.2 93 0.5 SSW 20 28 11 15 1026.8 1027.1 0.0
29/03:00pm 9.4 4.6 7.5 88 0.9 SSW 22 30 12 16 1026.7 1027.0 0.0
29/02:30pm 8.7 4.6 8.6 99 0.0 SSW 20 30 11 16 1026.8 1027.1 0.0
29/02:00pm 9.6 5.3 7.7 88 0.9 SSW 20 30 11 16 1026.9 1027.2 0.0
29/01:30pm 9.7 4.7 6.4 80 1.6 SSW 22 28 12 15 1027.1 1027.4 0.0
29/01:00pm 8.7 4.1 6.7 87 0.9 S 20 37 11 20 1027.6 1027.9 0.0
29/12:30pm 7.9 2.4 5.9 87 0.9 SSW 24 35 13 19 1028.0 1028.4 0.0
29/12:00pm 8.7 4.8 7.0 89 0.8 SSW 17 22 9 12 1028.3 1028.7 0.0
29/11:30am 7.2 2.9 7.2 100 0.0 SW 19 28 10 15 1028.7 1029.1 0.0
29/11:00am 8.0 3.3 5.1 82 1.3 SSW 19 28 10 15 1028.6 1029.0 0.0
29/10:30am 8.7 3.9 5.4 80 1.5 SSW 20 30 11 16 1028.5 1028.9 0.0
29/10:00am 8.2 3.1 4.2 76 1.8 SSW 20 28 11 15 1028.7 1029.1 0.0

Other Formats:

Comma delimited format used in spreadsheet applications
http://www.bom.gov.au/fwo/IDV60801/IDV60801.95840.axf

JavaScript Object Notation format (JSON) in row-major order
http://www.bom.gov.au/fwo/IDV60801/IDV60801.95840.json